sensor_id;sensor_type;location;lat;lon;timestamp;P1;durP1;ratioP1;P2;durP2;ratioP2
40088;SDS011;25793;55.706;13.186;2022-10-16T00:01:20;448.58;;;406.80;;
40088;SDS011;25793;55.706;13.186;2022-10-16T00:03:49;435.83;;;395.08;;
40088;SDS011;25793;55.706;13.186;2022-10-16T00:06:17;459.55;;;417.67;;
40088;SDS011;25793;55.706;13.186;2022-10-16T00:08:45;446.47;;;404.97;;
40088;SDS011;25793;55.706;13.186;2022-10-16T00:11:23;438.77;;;397.67;;
40088;SDS011;25793;55.706;13.186;2022-10-16T00:13:55;452.52;;;411.05;;
40088;SDS011;25793;55.706;13.186;2022-10-16T00:16:24;458.95;;;417.25;;
40088;SDS011;25793;55.706;13.186;2022-10-16T00:18:51;469.88;;;427.35;;
40088;SDS011;25793;55.706;13.186;2022-10-16T00:21:19;450.40;;;409.00;;
40088;SDS011;25793;55.706;13.186;2022-10-16T00:23:52;453.90;;;411.90;;
40088;SDS011;25793;55.706;13.186;2022-10-16T00:26:20;430.52;;;390.27;;
40088;SDS011;25793;55.706;13.186;2022-10-16T00:28:50;444.90;;;403.80;;
40088;SDS011;25793;55.706;13.186;2022-10-16T00:31:18;441.83;;;400.63;;
40088;SDS011;25793;55.706;13.186;2022-10-16T00:33:46;445.65;;;404.48;;
40088;SDS011;25793;55.706;13.186;2022-10-16T00:36:14;450.60;;;409.23;;
40088;SDS011;25793;55.706;13.186;2022-10-16T00:38:43;461.17;;;419.17;;
40088;SDS011;25793;55.706;13.186;2022-10-16T00:41:13;444.53;;;403.33;;
40088;SDS011;25793;55.706;13.186;2022-10-16T00:43:49;440.10;;;399.30;;
40088;SDS011;25793;55.706;13.186;2022-10-16T00:46:19;463.98;;;421.63;;
40088;SDS011;25793;55.706;13.186;2022-10-16T00:51:31;437.50;;;396.80;;
40088;SDS011;25793;55.706;13.186;2022-10-16T00:54:03;462.55;;;420.67;;
40088;SDS011;25793;55.706;13.186;2022-10-16T00:56:33;437.95;;;397.00;;
40088;SDS011;25793;55.706;13.186;2022-10-16T00:59:01;432.83;;;391.70;;
40088;SDS011;25793;55.706;13.186;2022-10-16T01:01:31;453.63;;;411.27;;
40088;SDS011;25793;55.706;13.186;2022-10-16T01:03:57;436.25;;;395.30;;
40088;SDS011;25793;55.706;13.186;2022-10-16T01:06:26;436.75;;;395.20;;
40088;SDS011;25793;55.706;13.186;2022-10-16T01:11:39;447.58;;;405.60;;
40088;SDS011;25793;55.706;13.186;2022-10-16T01:17:00;449.60;;;407.80;;
40088;SDS011;25793;55.706;13.186;2022-10-16T01:22:10;464.75;;;421.67;;
40088;SDS011;25793;55.706;13.186;2022-10-16T01:24:55;466.90;;;423.83;;
40088;SDS011;25793;55.706;13.186;2022-10-16T01:27:27;464.47;;;421.97;;
40088;SDS011;25793;55.706;13.186;2022-10-16T01:35:32;448.47;;;407.07;;
40088;SDS011;25793;55.706;13.186;2022-10-16T01:40:43;456.95;;;414.27;;
40088;SDS011;25793;55.706;13.186;2022-10-16T01:43:17;444.77;;;403.58;;
40088;SDS011;25793;55.706;13.186;2022-10-16T01:45:48;434.23;;;392.85;;
40088;SDS011;25793;55.706;13.186;2022-10-16T01:48:17;430.02;;;388.98;;
40088;SDS011;25793;55.706;13.186;2022-10-16T01:50:48;429.95;;;389.60;;
40088;SDS011;25793;55.706;13.186;2022-10-16T01:53:36;433.08;;;392.27;;
40088;SDS011;25793;55.706;13.186;2022-10-16T01:56:04;423.77;;;382.88;;
40088;SDS011;25793;55.706;13.186;2022-10-16T01:58:36;422.00;;;381.25;;
40088;SDS011;25793;55.706;13.186;2022-10-16T02:01:07;424.92;;;384.20;;
40088;SDS011;25793;55.706;13.186;2022-10-16T02:03:37;419.70;;;379.00;;
40088;SDS011;25793;55.706;13.186;2022-10-16T02:06:08;419.83;;;379.17;;
40088;SDS011;25793;55.706;13.186;2022-10-16T02:08:35;417.15;;;377.20;;
40088;SDS011;25793;55.706;13.186;2022-10-16T02:11:02;422.53;;;382.63;;
40088;SDS011;25793;55.706;13.186;2022-10-16T02:13:37;428.00;;;387.58;;
40088;SDS011;25793;55.706;13.186;2022-10-16T02:16:11;426.70;;;386.60;;
40088;SDS011;25793;55.706;13.186;2022-10-16T02:18:40;434.73;;;394.08;;
40088;SDS011;25793;55.706;13.186;2022-10-16T02:21:21;428.10;;;388.30;;
40088;SDS011;25793;55.706;13.186;2022-10-16T02:26:31;439.67;;;399.17;;
40088;SDS011;25793;55.706;13.186;2022-10-16T02:29:11;415.70;;;376.83;;
40088;SDS011;25793;55.706;13.186;2022-10-16T02:31:42;438.63;;;398.42;;
40088;SDS011;25793;55.706;13.186;2022-10-16T02:34:13;443.27;;;402.67;;
40088;SDS011;25793;55.706;13.186;2022-10-16T02:36:42;427.60;;;387.77;;
40088;SDS011;25793;55.706;13.186;2022-10-16T02:39:10;432.00;;;392.38;;
40088;SDS011;25793;55.706;13.186;2022-10-16T02:41:38;432.40;;;392.88;;
40088;SDS011;25793;55.706;13.186;2022-10-16T02:44:04;438.35;;;397.90;;
40088;SDS011;25793;55.706;13.186;2022-10-16T02:46:31;435.52;;;395.52;;
40088;SDS011;25793;55.706;13.186;2022-10-16T02:48:58;445.65;;;405.67;;
40088;SDS011;25793;55.706;13.186;2022-10-16T02:51:25;437.00;;;397.38;;
40088;SDS011;25793;55.706;13.186;2022-10-16T02:53:51;436.97;;;397.10;;
40088;SDS011;25793;55.706;13.186;2022-10-16T02:56:18;444.25;;;404.35;;
40088;SDS011;25793;55.706;13.186;2022-10-16T02:58:44;407.23;;;366.17;;
40088;SDS011;25793;55.706;13.186;2022-10-16T03:01:11;438.98;;;398.98;;
40088;SDS011;25793;55.706;13.186;2022-10-16T03:03:39;432.85;;;393.15;;
40088;SDS011;25793;55.706;13.186;2022-10-16T03:06:05;445.50;;;405.02;;
40088;SDS011;25793;55.706;13.186;2022-10-16T03:08:32;444.63;;;404.02;;
40088;SDS011;25793;55.706;13.186;2022-10-16T03:10:58;441.27;;;400.67;;
40088;SDS011;25793;55.706;13.186;2022-10-16T03:13:27;448.58;;;407.00;;
40088;SDS011;25793;55.706;13.186;2022-10-16T03:15:54;450.95;;;409.23;;
40088;SDS011;25793;55.706;13.186;2022-10-16T03:18:20;451.25;;;408.90;;
40088;SDS011;25793;55.706;13.186;2022-10-16T03:20:47;451.85;;;409.75;;
40088;SDS011;25793;55.706;13.186;2022-10-16T03:23:14;453.77;;;411.92;;
40088;SDS011;25793;55.706;13.186;2022-10-16T03:25:40;453.33;;;411.30;;
40088;SDS011;25793;55.706;13.186;2022-10-16T03:28:07;447.08;;;405.48;;
40088;SDS011;25793;55.706;13.186;2022-10-16T03:30:34;445.60;;;404.00;;
40088;SDS011;25793;55.706;13.186;2022-10-16T03:33:00;455.27;;;413.40;;
40088;SDS011;25793;55.706;13.186;2022-10-16T03:35:27;455.70;;;413.10;;
40088;SDS011;25793;55.706;13.186;2022-10-16T03:37:54;455.00;;;412.65;;
40088;SDS011;25793;55.706;13.186;2022-10-16T03:40:20;463.85;;;420.73;;
40088;SDS011;25793;55.706;13.186;2022-10-16T03:42:47;463.70;;;420.67;;
40088;SDS011;25793;55.706;13.186;2022-10-16T03:45:13;458.27;;;415.17;;
40088;SDS011;25793;55.706;13.186;2022-10-16T03:47:40;457.83;;;414.67;;
40088;SDS011;25793;55.706;13.186;2022-10-16T03:50:07;462.38;;;419.00;;
40088;SDS011;25793;55.706;13.186;2022-10-16T03:52:34;457.33;;;414.63;;
40088;SDS011;25793;55.706;13.186;2022-10-16T03:55:01;453.88;;;411.10;;
40088;SDS011;25793;55.706;13.186;2022-10-16T03:57:28;456.10;;;413.60;;
40088;SDS011;25793;55.706;13.186;2022-10-16T03:59:55;457.97;;;414.77;;
40088;SDS011;25793;55.706;13.186;2022-10-16T04:02:21;455.83;;;413.52;;
40088;SDS011;25793;55.706;13.186;2022-10-16T04:04:48;451.67;;;409.38;;
40088;SDS011;25793;55.706;13.186;2022-10-16T04:07:15;466.48;;;423.55;;
40088;SDS011;25793;55.706;13.186;2022-10-16T04:09:42;466.63;;;423.10;;
40088;SDS011;25793;55.706;13.186;2022-10-16T04:12:08;454.92;;;412.58;;
40088;SDS011;25793;55.706;13.186;2022-10-16T04:14:35;461.35;;;418.50;;
40088;SDS011;25793;55.706;13.186;2022-10-16T04:17:02;457.52;;;414.10;;
40088;SDS011;25793;55.706;13.186;2022-10-16T04:19:28;467.00;;;423.75;;
40088;SDS011;25793;55.706;13.186;2022-10-16T04:21:55;460.90;;;417.63;;
40088;SDS011;25793;55.706;13.186;2022-10-16T04:24:23;462.38;;;419.27;;
40088;SDS011;25793;55.706;13.186;2022-10-16T04:26:50;458.73;;;415.63;;
40088;SDS011;25793;55.706;13.186;2022-10-16T04:29:16;455.07;;;412.60;;
40088;SDS011;25793;55.706;13.186;2022-10-16T04:31:43;456.52;;;414.13;;
40088;SDS011;25793;55.706;13.186;2022-10-16T04:34:10;452.42;;;409.63;;
40088;SDS011;25793;55.706;13.186;2022-10-16T04:36:36;461.30;;;416.80;;
40088;SDS011;25793;55.706;13.186;2022-10-16T04:39:03;459.15;;;414.92;;
40088;SDS011;25793;55.706;13.186;2022-10-16T04:41:30;469.23;;;425.23;;
40088;SDS011;25793;55.706;13.186;2022-10-16T04:43:56;474.95;;;430.40;;
40088;SDS011;25793;55.706;13.186;2022-10-16T04:46:23;472.45;;;428.35;;
40088;SDS011;25793;55.706;13.186;2022-10-16T04:48:49;467.48;;;423.60;;
40088;SDS011;25793;55.706;13.186;2022-10-16T04:51:16;463.73;;;420.63;;
40088;SDS011;25793;55.706;13.186;2022-10-16T04:53:43;457.33;;;414.70;;
40088;SDS011;25793;55.706;13.186;2022-10-16T04:56:09;460.42;;;417.85;;
40088;SDS011;25793;55.706;13.186;2022-10-16T04:58:36;447.33;;;406.23;;
40088;SDS011;25793;55.706;13.186;2022-10-16T05:01:03;454.70;;;413.17;;
40088;SDS011;25793;55.706;13.186;2022-10-16T05:03:29;448.48;;;407.25;;
40088;SDS011;25793;55.706;13.186;2022-10-16T05:05:56;444.52;;;403.55;;
40088;SDS011;25793;55.706;13.186;2022-10-16T05:08:22;446.48;;;405.85;;
40088;SDS011;25793;55.706;13.186;2022-10-16T05:10:49;351.23;;;316.95;;
40088;SDS011;25793;55.706;13.186;2022-10-16T05:13:16;351.00;;;316.13;;
40088;SDS011;25793;55.706;13.186;2022-10-16T05:15:46;356.23;;;321.00;;
40088;SDS011;25793;55.706;13.186;2022-10-16T05:18:13;367.70;;;331.38;;
40088;SDS011;25793;55.706;13.186;2022-10-16T05:20:40;396.20;;;357.98;;
40088;SDS011;25793;55.706;13.186;2022-10-16T05:23:08;402.38;;;364.23;;
40088;SDS011;25793;55.706;13.186;2022-10-16T05:25:36;430.27;;;390.70;;
40088;SDS011;25793;55.706;13.186;2022-10-16T05:28:03;439.55;;;399.92;;
40088;SDS011;25793;55.706;13.186;2022-10-16T05:30:30;430.20;;;391.27;;
40088;SDS011;25793;55.706;13.186;2022-10-16T05:32:56;427.70;;;389.50;;
40088;SDS011;25793;55.706;13.186;2022-10-16T05:35:23;437.67;;;398.10;;
40088;SDS011;25793;55.706;13.186;2022-10-16T05:37:49;437.03;;;398.37;;
40088;SDS011;25793;55.706;13.186;2022-10-16T05:40:16;443.33;;;403.48;;
40088;SDS011;25793;55.706;13.186;2022-10-16T05:42:43;452.45;;;411.73;;
40088;SDS011;25793;55.706;13.186;2022-10-16T05:45:10;451.98;;;412.23;;
40088;SDS011;25793;55.706;13.186;2022-10-16T05:47:38;447.95;;;408.75;;
40088;SDS011;25793;55.706;13.186;2022-10-16T05:50:05;447.95;;;408.38;;
40088;SDS011;25793;55.706;13.186;2022-10-16T05:52:32;442.20;;;403.15;;
40088;SDS011;25793;55.706;13.186;2022-10-16T05:54:59;429.15;;;390.90;;
40088;SDS011;25793;55.706;13.186;2022-10-16T05:57:26;438.05;;;399.58;;
40088;SDS011;25793;55.706;13.186;2022-10-16T05:59:53;455.50;;;416.83;;
40088;SDS011;25793;55.706;13.186;2022-10-16T06:02:19;447.92;;;409.23;;
40088;SDS011;25793;55.706;13.186;2022-10-16T06:04:47;442.08;;;403.52;;
40088;SDS011;25793;55.706;13.186;2022-10-16T06:07:14;442.13;;;403.63;;
40088;SDS011;25793;55.706;13.186;2022-10-16T06:09:40;434.85;;;396.23;;
40088;SDS011;25793;55.706;13.186;2022-10-16T06:12:07;426.40;;;388.70;;
40088;SDS011;25793;55.706;13.186;2022-10-16T06:14:34;429.88;;;391.77;;
40088;SDS011;25793;55.706;13.186;2022-10-16T06:17:00;433.03;;;395.47;;
40088;SDS011;25793;55.706;13.186;2022-10-16T06:19:27;435.73;;;398.10;;
40088;SDS011;25793;55.706;13.186;2022-10-16T06:21:53;434.35;;;396.70;;
40088;SDS011;25793;55.706;13.186;2022-10-16T06:24:20;430.77;;;393.17;;
40088;SDS011;25793;55.706;13.186;2022-10-16T06:26:47;420.90;;;384.07;;
40088;SDS011;25793;55.706;13.186;2022-10-16T06:29:13;435.90;;;398.67;;
40088;SDS011;25793;55.706;13.186;2022-10-16T06:31:40;451.95;;;413.77;;
40088;SDS011;25793;55.706;13.186;2022-10-16T06:34:08;436.83;;;399.25;;
40088;SDS011;25793;55.706;13.186;2022-10-16T06:36:37;438.15;;;400.83;;
40088;SDS011;25793;55.706;13.186;2022-10-16T06:39:04;420.25;;;383.58;;
40088;SDS011;25793;55.706;13.186;2022-10-16T06:41:33;438.80;;;401.50;;
40088;SDS011;25793;55.706;13.186;2022-10-16T06:44:13;431.65;;;394.73;;
40088;SDS011;25793;55.706;13.186;2022-10-16T06:46:40;434.80;;;397.13;;
40088;SDS011;25793;55.706;13.186;2022-10-16T06:49:07;391.67;;;356.23;;
40088;SDS011;25793;55.706;13.186;2022-10-16T06:51:33;415.43;;;379.03;;
40088;SDS011;25793;55.706;13.186;2022-10-16T06:54:07;432.73;;;395.73;;
40088;SDS011;25793;55.706;13.186;2022-10-16T06:56:34;428.27;;;391.88;;
40088;SDS011;25793;55.706;13.186;2022-10-16T06:59:02;429.60;;;392.97;;
40088;SDS011;25793;55.706;13.186;2022-10-16T07:01:29;426.60;;;389.77;;
40088;SDS011;25793;55.706;13.186;2022-10-16T07:03:56;420.88;;;384.20;;
40088;SDS011;25793;55.706;13.186;2022-10-16T07:06:24;421.10;;;384.55;;
40088;SDS011;25793;55.706;13.186;2022-10-16T07:08:51;424.88;;;388.42;;
40088;SDS011;25793;55.706;13.186;2022-10-16T07:11:20;434.85;;;397.73;;
40088;SDS011;25793;55.706;13.186;2022-10-16T07:13:48;434.63;;;397.20;;
40088;SDS011;25793;55.706;13.186;2022-10-16T07:16:31;443.58;;;405.83;;
40088;SDS011;25793;55.706;13.186;2022-10-16T07:18:59;441.15;;;403.73;;
40088;SDS011;25793;55.706;13.186;2022-10-16T07:21:28;414.60;;;376.67;;
40088;SDS011;25793;55.706;13.186;2022-10-16T07:23:57;446.40;;;408.40;;
40088;SDS011;25793;55.706;13.186;2022-10-16T07:26:28;418.17;;;382.63;;
40088;SDS011;25793;55.706;13.186;2022-10-16T07:28:56;415.08;;;379.48;;
40088;SDS011;25793;55.706;13.186;2022-10-16T07:31:23;395.83;;;361.92;;
40088;SDS011;25793;55.706;13.186;2022-10-16T07:33:51;395.30;;;361.73;;
40088;SDS011;25793;55.706;13.186;2022-10-16T07:36:18;388.67;;;355.95;;
40088;SDS011;25793;55.706;13.186;2022-10-16T07:38:46;391.88;;;359.38;;
40088;SDS011;25793;55.706;13.186;2022-10-16T07:41:14;397.23;;;364.57;;
40088;SDS011;25793;55.706;13.186;2022-10-16T07:43:49;400.95;;;368.27;;
40088;SDS011;25793;55.706;13.186;2022-10-16T07:46:18;383.38;;;352.00;;
40088;SDS011;25793;55.706;13.186;2022-10-16T07:48:45;390.27;;;358.07;;
40088;SDS011;25793;55.706;13.186;2022-10-16T07:51:14;371.98;;;340.50;;
40088;SDS011;25793;55.706;13.186;2022-10-16T07:53:42;362.25;;;331.25;;
40088;SDS011;25793;55.706;13.186;2022-10-16T07:56:09;358.83;;;328.17;;
40088;SDS011;25793;55.706;13.186;2022-10-16T07:58:36;342.33;;;312.33;;
40088;SDS011;25793;55.706;13.186;2022-10-16T08:01:04;337.02;;;307.90;;
40088;SDS011;25793;55.706;13.186;2022-10-16T08:03:32;324.03;;;295.90;;
40088;SDS011;25793;55.706;13.186;2022-10-16T08:05:59;321.05;;;292.63;;
40088;SDS011;25793;55.706;13.186;2022-10-16T08:08:26;316.38;;;288.73;;
40088;SDS011;25793;55.706;13.186;2022-10-16T08:10:53;309.63;;;282.92;;
40088;SDS011;25793;55.706;13.186;2022-10-16T08:13:20;306.60;;;279.30;;
40088;SDS011;25793;55.706;13.186;2022-10-16T08:15:47;317.80;;;289.80;;
40088;SDS011;25793;55.706;13.186;2022-10-16T08:18:13;327.35;;;299.45;;
40088;SDS011;25793;55.706;13.186;2022-10-16T08:20:41;321.23;;;293.80;;
40088;SDS011;25793;55.706;13.186;2022-10-16T08:23:09;337.77;;;309.02;;
40088;SDS011;25793;55.706;13.186;2022-10-16T08:25:38;346.97;;;318.03;;
40088;SDS011;25793;55.706;13.186;2022-10-16T08:28:05;347.23;;;318.55;;
40088;SDS011;25793;55.706;13.186;2022-10-16T08:30:33;315.73;;;288.90;;
40088;SDS011;25793;55.706;13.186;2022-10-16T08:33:01;310.52;;;284.67;;
40088;SDS011;25793;55.706;13.186;2022-10-16T08:35:28;317.25;;;290.65;;
40088;SDS011;25793;55.706;13.186;2022-10-16T08:37:54;327.65;;;300.80;;
40088;SDS011;25793;55.706;13.186;2022-10-16T08:40:26;332.10;;;305.10;;
40088;SDS011;25793;55.706;13.186;2022-10-16T08:43:12;302.30;;;276.63;;
40088;SDS011;25793;55.706;13.186;2022-10-16T08:45:59;290.70;;;265.27;;
40088;SDS011;25793;55.706;13.186;2022-10-16T08:51:24;299.38;;;273.25;;
40088;SDS011;25793;55.706;13.186;2022-10-16T08:56:44;291.10;;;265.90;;
40088;SDS011;25793;55.706;13.186;2022-10-16T08:59:11;289.10;;;264.40;;
40088;SDS011;25793;55.706;13.186;2022-10-16T09:01:42;313.60;;;287.87;;
40088;SDS011;25793;55.706;13.186;2022-10-16T09:10:08;277.00;;;252.95;;
40088;SDS011;25793;55.706;13.186;2022-10-16T09:12:40;266.95;;;243.85;;
40088;SDS011;25793;55.706;13.186;2022-10-16T09:18:10;303.40;;;278.67;;
40088;SDS011;25793;55.706;13.186;2022-10-16T09:20:49;274.45;;;250.38;;
40088;SDS011;25793;55.706;13.186;2022-10-16T09:23:26;280.00;;;256.80;;
40088;SDS011;25793;55.706;13.186;2022-10-16T09:25:55;298.90;;;273.73;;
40088;SDS011;25793;55.706;13.186;2022-10-16T09:28:22;284.17;;;260.00;;
40088;SDS011;25793;55.706;13.186;2022-10-16T09:30:49;306.42;;;282.00;;
40088;SDS011;25793;55.706;13.186;2022-10-16T09:33:17;283.02;;;258.73;;
40088;SDS011;25793;55.706;13.186;2022-10-16T09:35:50;290.40;;;266.52;;
40088;SDS011;25793;55.706;13.186;2022-10-16T09:38:35;264.85;;;240.80;;
40088;SDS011;25793;55.706;13.186;2022-10-16T09:41:11;274.90;;;250.73;;
40088;SDS011;25793;55.706;13.186;2022-10-16T09:43:55;257.85;;;235.48;;
40088;SDS011;25793;55.706;13.186;2022-10-16T09:46:30;247.10;;;224.93;;
40088;SDS011;25793;55.706;13.186;2022-10-16T09:49:00;263.58;;;241.07;;
40088;SDS011;25793;55.706;13.186;2022-10-16T09:51:51;270.93;;;248.43;;
40088;SDS011;25793;55.706;13.186;2022-10-16T09:54:29;259.50;;;237.02;;
40088;SDS011;25793;55.706;13.186;2022-10-16T09:57:04;230.30;;;209.75;;
40088;SDS011;25793;55.706;13.186;2022-10-16T09:59:31;241.80;;;220.70;;
40088;SDS011;25793;55.706;13.186;2022-10-16T10:02:01;231.02;;;210.85;;
40088;SDS011;25793;55.706;13.186;2022-10-16T10:04:37;252.07;;;231.10;;
40088;SDS011;25793;55.706;13.186;2022-10-16T10:07:06;246.70;;;226.40;;
40088;SDS011;25793;55.706;13.186;2022-10-16T10:09:44;237.07;;;216.70;;
40088;SDS011;25793;55.706;13.186;2022-10-16T10:14:51;221.57;;;201.48;;
40088;SDS011;25793;55.706;13.186;2022-10-16T10:17:20;242.70;;;222.35;;
40088;SDS011;25793;55.706;13.186;2022-10-16T10:19:50;207.80;;;189.30;;
40088;SDS011;25793;55.706;13.186;2022-10-16T10:27:44;240.80;;;220.90;;
40088;SDS011;25793;55.706;13.186;2022-10-16T10:30:35;235.17;;;215.13;;
40088;SDS011;25793;55.706;13.186;2022-10-16T10:38:52;256.13;;;235.23;;
40088;SDS011;25793;55.706;13.186;2022-10-16T10:46:45;222.57;;;204.73;;
40088;SDS011;25793;55.706;13.186;2022-10-16T10:52:29;215.63;;;198.18;;
40088;SDS011;25793;55.706;13.186;2022-10-16T11:04:06;240.02;;;221.68;;
40088;SDS011;25793;55.706;13.186;2022-10-16T11:10:20;219.50;;;201.73;;
40088;SDS011;25793;55.706;13.186;2022-10-16T11:12:53;213.60;;;196.52;;
40088;SDS011;25793;55.706;13.186;2022-10-16T11:17:57;217.45;;;200.05;;
40088;SDS011;25793;55.706;13.186;2022-10-16T11:20:34;217.07;;;199.85;;
40088;SDS011;25793;55.706;13.186;2022-10-16T11:23:27;220.02;;;201.73;;
40088;SDS011;25793;55.706;13.186;2022-10-16T11:25:59;200.32;;;184.55;;
40088;SDS011;25793;55.706;13.186;2022-10-16T11:28:31;184.25;;;169.13;;
40088;SDS011;25793;55.706;13.186;2022-10-16T11:31:07;193.98;;;178.45;;
40088;SDS011;25793;55.706;13.186;2022-10-16T11:36:14;214.07;;;196.88;;
40088;SDS011;25793;55.706;13.186;2022-10-16T11:41:49;238.02;;;217.18;;
40088;SDS011;25793;55.706;13.186;2022-10-16T11:44:23;237.43;;;218.05;;
40088;SDS011;25793;55.706;13.186;2022-10-16T11:49:52;247.80;;;227.85;;
40088;SDS011;25793;55.706;13.186;2022-10-16T11:52:33;245.57;;;225.93;;
40088;SDS011;25793;55.706;13.186;2022-10-16T12:00:46;228.30;;;210.48;;
40088;SDS011;25793;55.706;13.186;2022-10-16T12:03:31;223.10;;;205.80;;
40088;SDS011;25793;55.706;13.186;2022-10-16T12:09:01;224.60;;;206.95;;
40088;SDS011;25793;55.706;13.186;2022-10-16T12:16:38;214.38;;;197.02;;
40088;SDS011;25793;55.706;13.186;2022-10-16T12:19:29;210.45;;;193.80;;
40088;SDS011;25793;55.706;13.186;2022-10-16T12:21:57;202.45;;;185.85;;
40088;SDS011;25793;55.706;13.186;2022-10-16T12:26:58;158.07;;;146.57;;
40088;SDS011;25793;55.706;13.186;2022-10-16T12:32:04;113.10;;;106.50;;
40088;SDS011;25793;55.706;13.186;2022-10-16T12:35:17;12.95;;;11.73;;
40088;SDS011;25793;55.706;13.186;2022-10-16T12:37:46;7.32;;;5.85;;
40088;SDS011;25793;55.706;13.186;2022-10-16T12:40:14;9.90;;;5.40;;
40088;SDS011;25793;55.706;13.186;2022-10-16T12:42:56;7.15;;;4.85;;
40088;SDS011;25793;55.706;13.186;2022-10-16T12:45:24;7.93;;;4.55;;
40088;SDS011;25793;55.706;13.186;2022-10-16T12:47:56;9.90;;;3.45;;
40088;SDS011;25793;55.706;13.186;2022-10-16T12:50:25;10.40;;;3.33;;
40088;SDS011;25793;55.706;13.186;2022-10-16T12:53:03;11.18;;;3.20;;
40088;SDS011;25793;55.706;13.186;2022-10-16T12:55:46;11.02;;;2.95;;
40088;SDS011;25793;55.706;13.186;2022-10-16T13:20:27;9.30;;;3.53;;
40088;SDS011;25793;55.706;13.186;2022-10-16T13:28:17;12.20;;;3.42;;
40088;SDS011;25793;55.706;13.186;2022-10-16T13:30:55;10.48;;;4.22;;
40088;SDS011;25793;55.706;13.186;2022-10-16T13:33:37;9.35;;;4.38;;
40088;SDS011;25793;55.706;13.186;2022-10-16T13:36:07;13.75;;;3.70;;
40088;SDS011;25793;55.706;13.186;2022-10-16T13:38:45;7.97;;;3.17;;
40088;SDS011;25793;55.706;13.186;2022-10-16T13:41:14;14.07;;;3.92;;
40088;SDS011;25793;55.706;13.186;2022-10-16T13:43:43;10.05;;;4.13;;
40088;SDS011;25793;55.706;13.186;2022-10-16T13:46:14;11.23;;;4.13;;
40088;SDS011;25793;55.706;13.186;2022-10-16T13:48:42;13.98;;;4.88;;
40088;SDS011;25793;55.706;13.186;2022-10-16T13:51:13;17.95;;;14.63;;
40088;SDS011;25793;55.706;13.186;2022-10-16T13:53:45;23.05;;;20.95;;
40088;SDS011;25793;55.706;13.186;2022-10-16T13:56:16;13.45;;;7.60;;
40088;SDS011;25793;55.706;13.186;2022-10-16T13:58:45;13.25;;;7.22;;
40088;SDS011;25793;55.706;13.186;2022-10-16T14:01:17;19.52;;;5.68;;
40088;SDS011;25793;55.706;13.186;2022-10-16T14:03:52;17.17;;;10.63;;
40088;SDS011;25793;55.706;13.186;2022-10-16T14:06:20;15.07;;;8.68;;
40088;SDS011;25793;55.706;13.186;2022-10-16T14:08:49;30.48;;;27.75;;
40088;SDS011;25793;55.706;13.186;2022-10-16T14:11:27;38.40;;;35.10;;
40088;SDS011;25793;55.706;13.186;2022-10-16T14:13:54;62.83;;;58.45;;
40088;SDS011;25793;55.706;13.186;2022-10-16T14:16:26;47.78;;;43.95;;
40088;SDS011;25793;55.706;13.186;2022-10-16T14:18:56;69.97;;;64.80;;
40088;SDS011;25793;55.706;13.186;2022-10-16T14:21:25;64.07;;;59.15;;
40088;SDS011;25793;55.706;13.186;2022-10-16T14:23:52;51.03;;;46.95;;
40088;SDS011;25793;55.706;13.186;2022-10-16T14:26:21;74.85;;;69.35;;
40088;SDS011;25793;55.706;13.186;2022-10-16T14:29:01;73.43;;;68.35;;
40088;SDS011;25793;55.706;13.186;2022-10-16T14:31:40;98.80;;;92.10;;
40088;SDS011;25793;55.706;13.186;2022-10-16T14:37:23;155.23;;;145.45;;
40088;SDS011;25793;55.706;13.186;2022-10-16T14:39:54;186.10;;;174.85;;
40088;SDS011;25793;55.706;13.186;2022-10-16T14:42:23;146.90;;;137.95;;
40088;SDS011;25793;55.706;13.186;2022-10-16T14:44:52;177.13;;;166.23;;
40088;SDS011;25793;55.706;13.186;2022-10-16T14:47:24;223.50;;;210.17;;
40088;SDS011;25793;55.706;13.186;2022-10-16T14:49:53;232.23;;;218.17;;
40088;SDS011;25793;55.706;13.186;2022-10-16T14:52:25;285.02;;;266.55;;
40088;SDS011;25793;55.706;13.186;2022-10-16T14:54:52;226.75;;;212.30;;
40088;SDS011;25793;55.706;13.186;2022-10-16T14:57:26;245.98;;;230.70;;
40088;SDS011;25793;55.706;13.186;2022-10-16T14:59:56;208.95;;;196.13;;
40088;SDS011;25793;55.706;13.186;2022-10-16T15:02:33;253.20;;;237.50;;
40088;SDS011;25793;55.706;13.186;2022-10-16T15:05:19;198.83;;;186.27;;
40088;SDS011;25793;55.706;13.186;2022-10-16T15:07:53;228.25;;;213.75;;
40088;SDS011;25793;55.706;13.186;2022-10-16T15:10:22;238.95;;;224.35;;
40088;SDS011;25793;55.706;13.186;2022-10-16T15:12:52;254.55;;;238.48;;
40088;SDS011;25793;55.706;13.186;2022-10-16T15:15:25;258.67;;;241.30;;
40088;SDS011;25793;55.706;13.186;2022-10-16T15:17:57;281.73;;;262.38;;
40088;SDS011;25793;55.706;13.186;2022-10-16T15:20:27;350.05;;;324.40;;
40088;SDS011;25793;55.706;13.186;2022-10-16T15:22:56;326.13;;;301.60;;
40088;SDS011;25793;55.706;13.186;2022-10-16T15:25:29;338.17;;;313.55;;
40088;SDS011;25793;55.706;13.186;2022-10-16T15:28:01;332.15;;;309.15;;
40088;SDS011;25793;55.706;13.186;2022-10-16T15:30:29;308.80;;;286.38;;
40088;SDS011;25793;55.706;13.186;2022-10-16T15:32:56;310.95;;;289.67;;
40088;SDS011;25793;55.706;13.186;2022-10-16T15:35:22;267.90;;;250.80;;
40088;SDS011;25793;55.706;13.186;2022-10-16T15:37:49;255.30;;;239.45;;
40088;SDS011;25793;55.706;13.186;2022-10-16T15:40:17;227.90;;;213.68;;
40088;SDS011;25793;55.706;13.186;2022-10-16T15:42:44;205.95;;;193.23;;
40088;SDS011;25793;55.706;13.186;2022-10-16T15:45:11;131.68;;;123.35;;
40088;SDS011;25793;55.706;13.186;2022-10-16T15:47:40;133.77;;;125.22;;
40088;SDS011;25793;55.706;13.186;2022-10-16T15:50:11;93.45;;;87.25;;
40088;SDS011;25793;55.706;13.186;2022-10-16T15:52:39;98.97;;;92.13;;
40088;SDS011;25793;55.706;13.186;2022-10-16T15:55:07;92.13;;;85.60;;
40088;SDS011;25793;55.706;13.186;2022-10-16T15:57:36;101.70;;;94.75;;
40088;SDS011;25793;55.706;13.186;2022-10-16T16:00:14;83.15;;;77.00;;
40088;SDS011;25793;55.706;13.186;2022-10-16T16:02:43;93.90;;;86.88;;
40088;SDS011;25793;55.706;13.186;2022-10-16T16:05:15;84.50;;;78.70;;
40088;SDS011;25793;55.706;13.186;2022-10-16T16:07:42;72.95;;;67.18;;
40088;SDS011;25793;55.706;13.186;2022-10-16T16:10:09;70.50;;;64.93;;
40088;SDS011;25793;55.706;13.186;2022-10-16T16:12:39;72.35;;;66.93;;
40088;SDS011;25793;55.706;13.186;2022-10-16T16:15:06;87.68;;;81.57;;
40088;SDS011;25793;55.706;13.186;2022-10-16T16:17:34;81.93;;;76.32;;